sensor_id;sensor_type;location;lat;lon;timestamp;pressure;altitude;pressure_sealevel;temperature;humidity
30897;BME280;64229;52.246;21.054;2023-04-20T00:01:45;100876.97;;;9.85;87.17
30897;BME280;64229;52.246;21.054;2023-04-20T00:04:11;100880.69;;;9.84;87.50
30897;BME280;64229;52.246;21.054;2023-04-20T00:06:36;100872.13;;;9.82;87.67
30897;BME280;64229;52.246;21.054;2023-04-20T00:09:02;100872.69;;;9.84;87.43
30897;BME280;64229;52.246;21.054;2023-04-20T00:11:29;100844.38;;;9.62;87.71
30897;BME280;64229;52.246;21.054;2023-04-20T00:13:54;100872.63;;;9.79;87.62
30897;BME280;64229;52.246;21.054;2023-04-20T00:16:19;100873.69;;;9.78;87.77
30897;BME280;64229;52.246;21.054;2023-04-20T00:18:45;100869.38;;;9.77;87.49
30897;BME280;64229;52.246;21.054;2023-04-20T00:21:11;100875.34;;;9.84;87.30
30897;BME280;64229;52.246;21.054;2023-04-20T00:23:37;100872.63;;;9.79;87.47
30897;BME280;64229;52.246;21.054;2023-04-20T00:26:03;100877.88;;;9.74;88.22
30897;BME280;64229;52.246;21.054;2023-04-20T00:28:28;100865.34;;;9.75;88.54
30897;BME280;64229;52.246;21.054;2023-04-20T00:30:53;100872.63;;;9.79;88.30
30897;BME280;64229;52.246;21.054;2023-04-20T00:33:19;100872.19;;;9.88;87.09
30897;BME280;64229;52.246;21.054;2023-04-20T00:35:44;100858.81;;;9.82;87.07
30897;BME280;64229;52.246;21.054;2023-04-20T00:38:10;100865.19;;;9.81;87.75
30897;BME280;64229;52.246;21.054;2023-04-20T00:40:35;100852.34;;;9.78;86.86
30897;BME280;64229;52.246;21.054;2023-04-20T00:43:11;100878.41;;;9.93;86.83
30897;BME280;64229;52.246;21.054;2023-04-20T00:45:37;100875.31;;;10.01;86.03
30897;BME280;64229;52.246;21.054;2023-04-20T00:48:03;100869.19;;;10.01;86.10
30897;BME280;64229;52.246;21.054;2023-04-20T00:50:28;100872.31;;;9.98;86.90
30897;BME280;64229;52.246;21.054;2023-04-20T00:52:54;100879.84;;;10.01;86.66
30897;BME280;64229;52.246;21.054;2023-04-20T00:55:20;100877.66;;;9.98;86.70
30897;BME280;64229;52.246;21.054;2023-04-20T00:57:47;100879.84;;;10.01;86.54
30897;BME280;64229;52.246;21.054;2023-04-20T01:00:12;100877.66;;;9.98;86.30
30897;BME280;64229;52.246;21.054;2023-04-20T01:02:38;100877.78;;;10.08;85.64
30897;BME280;64229;52.246;21.054;2023-04-20T01:05:03;100878.34;;;10.10;85.38
30897;BME280;64229;52.246;21.054;2023-04-20T01:07:28;100875.25;;;9.96;86.50
30897;BME280;64229;52.246;21.054;2023-04-20T01:09:54;100875.00;;;9.98;86.29
30897;BME280;64229;52.246;21.054;2023-04-20T01:12:20;100875.75;;;9.93;86.92
30897;BME280;64229;52.246;21.054;2023-04-20T01:14:45;100880.78;;;9.90;87.29
30897;BME280;64229;52.246;21.054;2023-04-20T01:17:11;100880.03;;;9.77;88.24
30897;BME280;64229;52.246;21.054;2023-04-20T01:19:37;100877.16;;;9.79;88.40
30897;BME280;64229;52.246;21.054;2023-04-20T01:22:03;100878.56;;;9.86;88.17
30897;BME280;64229;52.246;21.054;2023-04-20T01:24:28;100880.56;;;9.96;87.33
30897;BME280;64229;52.246;21.054;2023-04-20T01:26:53;100871.13;;;9.89;87.91
30897;BME280;64229;52.246;21.054;2023-04-20T01:29:18;100874.13;;;9.92;87.72
30897;BME280;64229;52.246;21.054;2023-04-20T01:31:44;100871.22;;;9.94;87.57
30897;BME280;64229;52.246;21.054;2023-04-20T01:34:10;100873.94;;;9.99;87.27
30897;BME280;64229;52.246;21.054;2023-04-20T01:36:35;100876.59;;;9.99;87.23
30897;BME280;64229;52.246;21.054;2023-04-20T01:39:00;100871.22;;;9.94;87.61
30897;BME280;64229;52.246;21.054;2023-04-20T01:41:26;100872.69;;;9.84;88.11
30897;BME280;64229;52.246;21.054;2023-04-20T01:43:51;100864.19;;;9.88;88.09
30897;BME280;64229;52.246;21.054;2023-04-20T01:46:16;100864.53;;;9.91;87.70
30897;BME280;64229;52.246;21.054;2023-04-20T01:48:42;100869.06;;;9.91;87.25
30897;BME280;64229;52.246;21.054;2023-04-20T01:51:07;100866.69;;;9.94;87.19
30897;BME280;64229;52.246;21.054;2023-04-20T01:53:33;100870.97;;;9.95;87.26
30897;BME280;64229;52.246;21.054;2023-04-20T01:55:59;100873.94;;;9.99;86.64
30897;BME280;64229;52.246;21.054;2023-04-20T01:58:24;100872.78;;;9.90;87.31
30897;BME280;64229;52.246;21.054;2023-04-20T02:00:50;100870.56;;;9.86;88.20
30897;BME280;64229;52.246;21.054;2023-04-20T02:03:15;100868.56;;;9.77;88.53
30897;BME280;64229;52.246;21.054;2023-04-20T02:05:40;100871.63;;;9.85;88.54
30897;BME280;64229;52.246;21.054;2023-04-20T02:08:06;100875.44;;;9.90;87.72
30897;BME280;64229;52.246;21.054;2023-04-20T02:10:31;100869.06;;;9.91;87.96
30897;BME280;64229;52.246;21.054;2023-04-20T02:12:56;100879.13;;;9.89;87.84
30897;BME280;64229;52.246;21.054;2023-04-20T02:15:22;100853.00;;;9.69;88.17
30897;BME280;64229;52.246;21.054;2023-04-20T02:17:47;100875.19;;;9.91;87.79
30897;BME280;64229;52.246;21.054;2023-04-20T02:28:01;100879.38;;;9.87;87.80
30897;BME280;64229;52.246;21.054;2023-04-20T02:30:27;100856.94;;;9.83;87.71
30897;BME280;64229;52.246;21.054;2023-04-20T02:32:52;100872.81;;;9.95;86.94
30897;BME280;64229;52.246;21.054;2023-04-20T02:35:18;100874.94;;;9.93;87.29
30897;BME280;64229;52.246;21.054;2023-04-20T02:37:44;100873.88;;;9.94;86.96
30897;BME280;64229;52.246;21.054;2023-04-20T02:40:10;100862.31;;;9.88;86.40
30897;BME280;64229;52.246;21.054;2023-04-20T02:42:35;100873.47;;;10.02;86.36
30897;BME280;64229;52.246;21.054;2023-04-20T02:45:01;100880.28;;;9.93;86.61
30897;BME280;64229;52.246;21.054;2023-04-20T02:47:26;100871.97;;;9.89;86.62
30897;BME280;64229;52.246;21.054;2023-04-20T02:49:51;100873.25;;;9.86;87.00
30897;BME280;64229;52.246;21.054;2023-04-20T02:52:17;100883.75;;;9.76;87.83
30897;BME280;64229;52.246;21.054;2023-04-20T02:54:42;100884.25;;;9.73;88.24
30897;BME280;64229;52.246;21.054;2023-04-20T02:57:07;100882.41;;;9.74;88.12
30897;BME280;64229;52.246;21.054;2023-04-20T02:59:35;100860.91;;;9.64;88.31
30897;BME280;64229;52.246;21.054;2023-04-20T03:02:00;100867.94;;;9.70;87.66
30897;BME280;64229;52.246;21.054;2023-04-20T03:04:25;100880.84;;;9.78;87.25
30897;BME280;64229;52.246;21.054;2023-04-20T03:06:51;100861.31;;;9.72;87.14
30897;BME280;64229;52.246;21.054;2023-04-20T03:09:17;100887.31;;;9.82;87.35
30897;BME280;64229;52.246;21.054;2023-04-20T03:11:44;100883.28;;;9.79;87.21
30897;BME280;64229;52.246;21.054;2023-04-20T03:14:09;100876.19;;;9.68;87.69
30897;BME280;64229;52.246;21.054;2023-04-20T03:16:34;100881.75;;;9.67;88.39
30897;BME280;64229;52.246;21.054;2023-04-20T03:19:00;100884.19;;;9.68;88.12
30897;BME280;64229;52.246;21.054;2023-04-20T03:21:25;100885.56;;;9.71;87.97
30897;BME280;64229;52.246;21.054;2023-04-20T03:23:51;100885.31;;;9.72;87.72
30897;BME280;64229;52.246;21.054;2023-04-20T03:26:16;100882.09;;;9.70;88.25
30897;BME280;64229;52.246;21.054;2023-04-20T03:28:42;100879.41;;;9.70;88.36
30897;BME280;64229;52.246;21.054;2023-04-20T03:31:07;100884.66;;;9.65;88.40
30897;BME280;64229;52.246;21.054;2023-04-20T03:33:32;100863.84;;;9.45;88.73
30897;BME280;64229;52.246;21.054;2023-04-20T03:35:58;100886.06;;;9.51;89.09
30897;BME280;64229;52.246;21.054;2023-04-20T03:38:23;100882.03;;;9.48;89.28
30897;BME280;64229;52.246;21.054;2023-04-20T03:40:48;100888.06;;;9.44;89.55
30897;BME280;64229;52.246;21.054;2023-04-20T03:43:14;100895.75;;;9.57;88.17
30897;BME280;64229;52.246;21.054;2023-04-20T03:45:40;100891.94;;;9.53;88.32
30897;BME280;64229;52.246;21.054;2023-04-20T03:48:05;100893.91;;;9.57;88.18
30897;BME280;64229;52.246;21.054;2023-04-20T03:50:31;100898.63;;;9.55;88.26
30897;BME280;64229;52.246;21.054;2023-04-20T03:52:56;100899.78;;;9.60;87.81
30897;BME280;64229;52.246;21.054;2023-04-20T03:55:21;100897.84;;;9.55;88.12
30897;BME280;64229;52.246;21.054;2023-04-20T03:57:47;100885.88;;;9.41;88.68
30897;BME280;64229;52.246;21.054;2023-04-20T04:00:12;100903.25;;;9.60;87.55
30897;BME280;64229;52.246;21.054;2023-04-20T04:02:38;100877.56;;;9.54;87.46
30897;BME280;64229;52.246;21.054;2023-04-20T04:05:04;100905.88;;;9.77;86.57
30897;BME280;64229;52.246;21.054;2023-04-20T04:07:29;100908.25;;;9.73;86.57
30897;BME280;64229;52.246;21.054;2023-04-20T04:09:55;100915.38;;;9.68;87.75
30897;BME280;64229;52.246;21.054;2023-04-20T04:12:20;100912.22;;;9.71;86.82
30897;BME280;64229;52.246;21.054;2023-04-20T04:14:45;100911.22;;;9.77;86.57
30897;BME280;64229;52.246;21.054;2023-04-20T04:17:13;100903.41;;;9.70;86.60
30897;BME280;64229;52.246;21.054;2023-04-20T04:19:38;100909.84;;;9.74;86.41
30897;BME280;64229;52.246;21.054;2023-04-20T04:22:03;100903.41;;;9.70;86.48
30897;BME280;64229;52.246;21.054;2023-04-20T04:24:29;100913.31;;;9.75;86.53
30897;BME280;64229;52.246;21.054;2023-04-20T04:26:55;100914.38;;;9.74;86.85
30897;BME280;64229;52.246;21.054;2023-04-20T04:29:22;100911.81;;;9.79;86.53
30897;BME280;64229;52.246;21.054;2023-04-20T04:31:50;100921.81;;;9.72;87.16
30897;BME280;64229;52.246;21.054;2023-04-20T04:34:15;100929.25;;;9.70;88.22
30897;BME280;64229;52.246;21.054;2023-04-20T04:36:42;100925.94;;;9.79;87.12
30897;BME280;64229;52.246;21.054;2023-04-20T04:39:08;100928.75;;;9.90;86.34
30897;BME280;64229;52.246;21.054;2023-04-20T04:41:33;100933.50;;;9.88;86.29
30897;BME280;64229;52.246;21.054;2023-04-20T04:43:59;100933.69;;;9.81;87.98
30897;BME280;64229;52.246;21.054;2023-04-20T04:46:25;100929.56;;;9.73;88.63
30897;BME280;64229;52.246;21.054;2023-04-20T04:48:51;100928.44;;;9.86;87.43
30897;BME280;64229;52.246;21.054;2023-04-20T04:51:17;100935.28;;;9.99;86.43
30897;BME280;64229;52.246;21.054;2023-04-20T04:53:42;100935.09;;;10.05;86.53
30897;BME280;64229;52.246;21.054;2023-04-20T04:56:11;100943.41;;;10.09;86.62
30897;BME280;64229;52.246;21.054;2023-04-20T04:58:37;100941.34;;;10.11;87.11
30897;BME280;64229;52.246;21.054;2023-04-20T05:01:03;100931.94;;;10.08;86.39
30897;BME280;64229;52.246;21.054;2023-04-20T05:03:28;100949.00;;;10.24;86.38
30897;BME280;64229;52.246;21.054;2023-04-20T05:05:53;100951.75;;;10.29;86.52
30897;BME280;64229;52.246;21.054;2023-04-20T05:08:19;100954.41;;;10.29;86.92
30897;BME280;64229;52.246;21.054;2023-04-20T05:10:45;100944.94;;;10.38;86.26
30897;BME280;64229;52.246;21.054;2023-04-20T05:13:10;100949.84;;;10.47;85.73
30897;BME280;64229;52.246;21.054;2023-04-20T05:15:36;100953.94;;;10.54;85.23
30897;BME280;64229;52.246;21.054;2023-04-20T05:18:01;100956.97;;;10.63;84.66
30897;BME280;64229;52.246;21.054;2023-04-20T05:20:27;100955.69;;;10.65;84.54
30897;BME280;64229;52.246;21.054;2023-04-20T05:22:53;100954.94;;;10.70;84.94
30897;BME280;64229;52.246;21.054;2023-04-20T05:25:18;100955.00;;;10.75;84.15
30897;BME280;64229;52.246;21.054;2023-04-20T05:27:43;100962.63;;;10.88;83.26
30897;BME280;64229;52.246;21.054;2023-04-20T05:30:09;100965.00;;;10.85;84.14
30897;BME280;64229;52.246;21.054;2023-04-20T05:32:34;100953.56;;;10.89;82.08
30897;BME280;64229;52.246;21.054;2023-04-20T05:35:00;100959.25;;;10.98;82.99
30897;BME280;64229;52.246;21.054;2023-04-20T05:37:25;100965.78;;;11.07;81.36
30897;BME280;64229;52.246;21.054;2023-04-20T05:39:51;100984.94;;;11.04;82.55
30897;BME280;64229;52.246;21.054;2023-04-20T05:42:17;100977.31;;;11.13;81.33
30897;BME280;64229;52.246;21.054;2023-04-20T05:44:42;100971.97;;;11.13;81.85
30897;BME280;64229;52.246;21.054;2023-04-20T05:47:08;100972.47;;;11.10;82.18
30897;BME280;64229;52.246;21.054;2023-04-20T05:49:34;100971.16;;;11.12;82.55
30897;BME280;64229;52.246;21.054;2023-04-20T05:51:59;100978.97;;;11.19;81.76
30897;BME280;64229;52.246;21.054;2023-04-20T05:54:26;100973.75;;;11.29;82.08
30897;BME280;64229;52.246;21.054;2023-04-20T05:56:53;100971.16;;;11.39;82.62
30897;BME280;64229;52.246;21.054;2023-04-20T05:59:18;100975.84;;;11.54;81.03
30897;BME280;64229;52.246;21.054;2023-04-20T06:01:44;100981.09;;;11.76;78.91
30897;BME280;64229;52.246;21.054;2023-04-20T06:04:09;100993.06;;;11.95;77.56
30897;BME280;64229;52.246;21.054;2023-04-20T06:06:35;100985.09;;;12.05;76.91
30897;BME280;64229;52.246;21.054;2023-04-20T06:09:00;100991.03;;;12.12;76.76
30897;BME280;64229;52.246;21.054;2023-04-20T06:11:25;100990.00;;;12.19;76.22
30897;BME280;64229;52.246;21.054;2023-04-20T06:13:51;100988.47;;;12.33;74.76
30897;BME280;64229;52.246;21.054;2023-04-20T06:16:16;100995.94;;;12.31;76.04
30897;BME280;64229;52.246;21.054;2023-04-20T06:18:42;100996.56;;;12.43;75.09
30897;BME280;64229;52.246;21.054;2023-04-20T06:21:11;100989.41;;;12.59;73.58
30897;BME280;64229;52.246;21.054;2023-04-20T06:23:36;100993.44;;;12.56;73.50
30897;BME280;64229;52.246;21.054;2023-04-20T06:26:02;100991.34;;;12.73;72.10
30897;BME280;64229;52.246;21.054;2023-04-20T06:28:27;100990.00;;;12.71;72.61
30897;BME280;64229;52.246;21.054;2023-04-20T06:30:53;100991.59;;;12.67;72.56
30897;BME280;64229;52.246;21.054;2023-04-20T06:33:18;100979.06;;;12.78;72.39
30897;BME280;64229;52.246;21.054;2023-04-20T06:35:43;100987.97;;;13.03;69.82
30897;BME280;64229;52.246;21.054;2023-04-20T06:38:09;100985.88;;;13.11;70.15
30897;BME280;64229;52.246;21.054;2023-04-20T06:40:34;100984.78;;;13.17;69.82
30897;BME280;64229;52.246;21.054;2023-04-20T06:43:00;100976.81;;;13.22;69.54
30897;BME280;64229;52.246;21.054;2023-04-20T06:45:25;100981.38;;;13.37;67.19
30897;BME280;64229;52.246;21.054;2023-04-20T06:47:51;100983.25;;;13.46;66.18
30897;BME280;64229;52.246;21.054;2023-04-20T06:50:16;100987.56;;;13.52;66.47
30897;BME280;64229;52.246;21.054;2023-04-20T06:52:41;100991.34;;;13.51;66.27
30897;BME280;64229;52.246;21.054;2023-04-20T06:55:08;100983.56;;;13.65;65.58
30897;BME280;64229;52.246;21.054;2023-04-20T06:57:34;100990.50;;;13.71;64.60
30897;BME280;64229;52.246;21.054;2023-04-20T07:00:01;100987.84;;;13.66;64.54
30897;BME280;64229;52.246;21.054;2023-04-20T07:02:26;100980.34;;;13.73;64.91
30897;BME280;64229;52.246;21.054;2023-04-20T07:04:52;100994.28;;;13.96;64.94
30897;BME280;64229;52.246;21.054;2023-04-20T07:07:17;100988.31;;;14.24;64.65
30897;BME280;64229;52.246;21.054;2023-04-20T07:09:42;101000.09;;;14.54;63.89
30897;BME280;64229;52.246;21.054;2023-04-20T07:12:08;100981.53;;;14.62;63.40
30897;BME280;64229;52.246;21.054;2023-04-20T07:14:33;100998.09;;;14.85;62.39
30897;BME280;64229;52.246;21.054;2023-04-20T07:16:58;101005.03;;;14.96;61.15
30897;BME280;64229;52.246;21.054;2023-04-20T07:19:24;100996.63;;;15.08;60.63
30897;BME280;64229;52.246;21.054;2023-04-20T07:21:49;100996.56;;;15.18;60.84
30897;BME280;64229;52.246;21.054;2023-04-20T07:24:14;100999.44;;;15.37;60.05
30897;BME280;64229;52.246;21.054;2023-04-20T07:26:40;100999.00;;;15.64;56.58
30897;BME280;64229;52.246;21.054;2023-04-20T07:29:05;100990.38;;;15.67;57.47
30897;BME280;64229;52.246;21.054;2023-04-20T07:31:30;101003.38;;;15.88;57.42
30897;BME280;64229;52.246;21.054;2023-04-20T07:33:56;101002.41;;;16.08;55.90
30897;BME280;64229;52.246;21.054;2023-04-20T07:36:21;100997.09;;;16.27;54.41
30897;BME280;64229;52.246;21.054;2023-04-20T07:38:47;100996.91;;;16.42;53.53
30897;BME280;64229;52.246;21.054;2023-04-20T07:41:13;101002.34;;;16.37;54.00
30897;BME280;64229;52.246;21.054;2023-04-20T07:43:39;101001.91;;;16.54;54.92
30897;BME280;64229;52.246;21.054;2023-04-20T07:46:04;101003.97;;;16.86;53.18
30897;BME280;64229;52.246;21.054;2023-04-20T07:48:29;101004.94;;;16.95;51.83
30897;BME280;64229;52.246;21.054;2023-04-20T07:50:56;101004.97;;;17.14;51.34
30897;BME280;64229;52.246;21.054;2023-04-20T07:53:21;101002.53;;;17.31;51.57
30897;BME280;64229;52.246;21.054;2023-04-20T07:55:46;101000.28;;;17.39;51.87
30897;BME280;64229;52.246;21.054;2023-04-20T07:58:13;100992.47;;;17.56;50.91
30897;BME280;64229;52.246;21.054;2023-04-20T08:00:38;100994.28;;;17.60;51.02
30897;BME280;64229;52.246;21.054;2023-04-20T08:03:04;101002.84;;;17.49;50.32
30897;BME280;64229;52.246;21.054;2023-04-20T08:05:29;100996.53;;;17.53;48.56
30897;BME280;64229;52.246;21.054;2023-04-20T08:07:54;100996.06;;;17.70;48.47
30897;BME280;64229;52.246;21.054;2023-04-20T08:10:20;100992.41;;;17.93;46.93
30897;BME280;64229;52.246;21.054;2023-04-20T08:12:45;100990.16;;;18.14;47.63
30897;BME280;64229;52.246;21.054;2023-04-20T08:15:11;100992.75;;;19.38;43.95
30897;BME280;64229;52.246;21.054;2023-04-20T08:17:36;101004.31;;;21.59;38.09
30897;BME280;64229;52.246;21.054;2023-04-20T08:20:02;100999.56;;;22.59;36.62
30897;BME280;64229;52.246;21.054;2023-04-20T08:22:30;101004.41;;;22.74;35.30
30897;BME280;64229;52.246;21.054;2023-04-20T08:24:56;101013.53;;;23.07;34.34
30897;BME280;64229;52.246;21.054;2023-04-20T08:27:21;101008.66;;;25.06;30.81
30897;BME280;64229;52.246;21.054;2023-04-20T08:29:47;101012.81;;;26.79;28.40
30897;BME280;64229;52.246;21.054;2023-04-20T08:32:12;101009.22;;;27.49;25.81
30897;BME280;64229;52.246;21.054;2023-04-20T08:34:38;100997.88;;;28.35;25.08
30897;BME280;64229;52.246;21.054;2023-04-20T08:37:04;101011.03;;;29.65;24.24
30897;BME280;64229;52.246;21.054;2023-04-20T08:39:29;101010.28;;;31.19;22.87
30897;BME280;64229;52.246;21.054;2023-04-20T08:41:55;101008.16;;;32.56;19.94
30897;BME280;64229;52.246;21.054;2023-04-20T08:44:22;101015.50;;;33.16;20.19
30897;BME280;64229;52.246;21.054;2023-04-20T08:46:48;100997.72;;;33.17;19.96
30897;BME280;64229;52.246;21.054;2023-04-20T08:49:17;101003.63;;;33.23;19.11
30897;BME280;64229;52.246;21.054;2023-04-20T08:51:44;101003.75;;;32.84;18.92
30897;BME280;64229;52.246;21.054;2023-04-20T08:54:11;101006.13;;;32.78;20.23
30897;BME280;64229;52.246;21.054;2023-04-20T08:56:38;101004.81;;;31.33;21.00
30897;BME280;64229;52.246;21.054;2023-04-20T08:59:04;101004.09;;;30.67;21.82
30897;BME280;64229;52.246;21.054;2023-04-20T09:01:31;101000.91;;;31.45;21.21
30897;BME280;64229;52.246;21.054;2023-04-20T09:03:58;100995.94;;;32.07;19.62
30897;BME280;64229;52.246;21.054;2023-04-20T09:06:24;101003.03;;;31.90;19.90
30897;BME280;64229;52.246;21.054;2023-04-20T09:08:49;101001.44;;;32.18;20.19
30897;BME280;64229;52.246;21.054;2023-04-20T09:11:26;101000.28;;;30.31;20.10
30897;BME280;64229;52.246;21.054;2023-04-20T09:14:05;100995.66;;;28.70;22.20
30897;BME280;64229;52.246;21.054;2023-04-20T09:16:56;100989.44;;;28.47;21.90
30897;BME280;64229;52.246;21.054;2023-04-20T09:19:27;101001.88;;;27.95;22.68
30897;BME280;64229;52.246;21.054;2023-04-20T09:21:54;100985.56;;;28.02;22.53
30897;BME280;64229;52.246;21.054;2023-04-20T09:24:21;100995.25;;;29.25;20.05
30897;BME280;64229;52.246;21.054;2023-04-20T09:26:47;100988.34;;;29.38;20.78
30897;BME280;64229;52.246;21.054;2023-04-20T09:29:18;100990.28;;;31.43;19.72
30897;BME280;64229;52.246;21.054;2023-04-20T09:31:43;100987.22;;;32.62;17.98
30897;BME280;64229;52.246;21.054;2023-04-20T09:34:08;100990.00;;;32.41;17.84
30897;BME280;64229;52.246;21.054;2023-04-20T09:36:44;100989.22;;;32.15;18.01
30897;BME280;64229;52.246;21.054;2023-04-20T09:39:18;100993.94;;;32.08;17.35
30897;BME280;64229;52.246;21.054;2023-04-20T09:41:44;100999.06;;;32.52;16.93
30897;BME280;64229;52.246;21.054;2023-04-20T09:44:11;101006.56;;;32.05;17.81
30897;BME280;64229;52.246;21.054;2023-04-20T09:46:38;100999.47;;;32.08;17.18
30897;BME280;64229;52.246;21.054;2023-04-20T09:49:09;100999.44;;;32.75;16.38
30897;BME280;64229;52.246;21.054;2023-04-20T09:51:37;101001.06;;;32.41;17.01
30897;BME280;64229;52.246;21.054;2023-04-20T09:54:04;101008.53;;;32.62;16.82
30897;BME280;64229;52.246;21.054;2023-04-20T09:56:31;100999.41;;;32.97;16.93
30897;BME280;64229;52.246;21.054;2023-04-20T09:58:59;100991.38;;;30.04;18.92
30897;BME280;64229;52.246;21.054;2023-04-20T10:01:25;100991.06;;;29.72;18.86
30897;BME280;64229;52.246;21.054;2023-04-20T10:03:53;100983.00;;;29.52;19.01
30897;BME280;64229;52.246;21.054;2023-04-20T10:08:44;100978.13;;;27.41;20.60
30897;BME280;64229;52.246;21.054;2023-04-20T10:11:09;100984.06;;;25.75;22.58
30897;BME280;64229;52.246;21.054;2023-04-20T10:13:36;100968.06;;;24.56;23.00
30897;BME280;64229;52.246;21.054;2023-04-20T10:16:01;100956.22;;;23.58;23.46
30897;BME280;64229;52.246;21.054;2023-04-20T10:18:27;100983.72;;;23.11;23.70
30897;BME280;64229;52.246;21.054;2023-04-20T10:21:06;100965.53;;;22.73;24.02
30897;BME280;64229;52.246;21.054;2023-04-20T10:23:33;100958.25;;;22.86;23.85
30897;BME280;64229;52.246;21.054;2023-04-20T10:25:59;100960.03;;;22.52;23.25
30897;BME280;64229;52.246;21.054;2023-04-20T10:28:37;100970.25;;;21.71;23.70
30897;BME280;64229;52.246;21.054;2023-04-20T10:31:04;100953.72;;;20.46;25.16
30897;BME280;64229;52.246;21.054;2023-04-20T10:33:31;100959.66;;;20.57;25.74
30897;BME280;64229;52.246;21.054;2023-04-20T10:35:57;100952.97;;;20.71;26.00
30897;BME280;64229;52.246;21.054;2023-04-20T10:38:34;100955.22;;;20.69;26.69
30897;BME280;64229;52.246;21.054;2023-04-20T10:41:09;100962.72;;;20.72;27.86
30897;BME280;64229;52.246;21.054;2023-04-20T10:43:35;100949.75;;;20.52;26.48
30897;BME280;64229;52.246;21.054;2023-04-20T10:46:13;100946.81;;;20.40;26.26
30897;BME280;64229;52.246;21.054;2023-04-20T10:48:48;100939.84;;;19.77;26.73
30897;BME280;64229;52.246;21.054;2023-04-20T10:51:14;100944.56;;;19.93;26.32
30897;BME280;64229;52.246;21.054;2023-04-20T10:53:39;100946.41;;;19.84;27.07
30897;BME280;64229;52.246;21.054;2023-04-20T10:56:05;100942.56;;;19.77;26.50
30897;BME280;64229;52.246;21.054;2023-04-20T10:58:30;100940.56;;;19.60;26.58
30897;BME280;64229;52.246;21.054;2023-04-20T11:01:04;100932.34;;;19.74;27.37
30897;BME280;64229;52.246;21.054;2023-04-20T11:03:31;100945.34;;;19.94;27.05
30897;BME280;64229;52.246;21.054;2023-04-20T11:05:58;100945.84;;;19.96;26.48
30897;BME280;64229;52.246;21.054;2023-04-20T11:08:41;100922.22;;;19.88;27.21
30897;BME280;64229;52.246;21.054;2023-04-20T11:11:21;100941.09;;;20.02;27.22
30897;BME280;64229;52.246;21.054;2023-04-20T11:13:52;100943.69;;;20.15;27.41
30897;BME280;64229;52.246;21.054;2023-04-20T11:16:28;100944.13;;;20.00;27.01
30897;BME280;64229;52.246;21.054;2023-04-20T11:18:54;100927.88;;;20.00;27.13
30897;BME280;64229;52.246;21.054;2023-04-20T11:21:21;100934.59;;;20.11;26.96
30897;BME280;64229;52.246;21.054;2023-04-20T11:23:47;100943.94;;;20.36;26.73
30897;BME280;64229;52.246;21.054;2023-04-20T11:26:13;100940.75;;;20.34;26.50
30897;BME280;64229;52.246;21.054;2023-04-20T11:28:50;100918.59;;;20.41;26.65
30897;BME280;64229;52.246;21.054;2023-04-20T11:31:16;100932.53;;;20.57;26.52
30897;BME280;64229;52.246;21.054;2023-04-20T11:33:42;100937.50;;;20.63;26.34
30897;BME280;64229;52.246;21.054;2023-04-20T11:36:21;100934.59;;;20.60;26.17
30897;BME280;64229;52.246;21.054;2023-04-20T11:38:47;100933.09;;;20.36;24.56
30897;BME280;64229;52.246;21.054;2023-04-20T11:41:12;100940.91;;;20.38;25.66
30897;BME280;64229;52.246;21.054;2023-04-20T11:43:38;100933.38;;;20.26;25.42
30897;BME280;64229;52.246;21.054;2023-04-20T11:46:15;100927.88;;;20.09;25.79
30897;BME280;64229;52.246;21.054;2023-04-20T11:48:41;100927.91;;;20.17;25.17
30897;BME280;64229;52.246;21.054;2023-04-20T11:51:06;100917.78;;;20.40;25.51
30897;BME280;64229;52.246;21.054;2023-04-20T11:53:32;100925.84;;;20.71;25.01
30897;BME280;64229;52.246;21.054;2023-04-20T11:55:58;100933.22;;;20.79;24.65
30897;BME280;64229;52.246;21.054;2023-04-20T11:58:23;100923.28;;;20.58;24.19
30897;BME280;64229;52.246;21.054;2023-04-20T12:00:48;100924.06;;;20.49;24.35
30897;BME280;64229;52.246;21.054;2023-04-20T12:03:14;100925.63;;;20.42;24.27
30897;BME280;64229;52.246;21.054;2023-04-20T12:05:39;100913.25;;;20.18;25.12
30897;BME280;64229;52.246;21.054;2023-04-20T12:08:07;100903.75;;;19.90;24.38
30897;BME280;64229;52.246;21.054;2023-04-20T12:10:32;100915.88;;;19.92;25.41
30897;BME280;64229;52.246;21.054;2023-04-20T12:12:58;100916.25;;;19.77;24.82
30897;BME280;64229;52.246;21.054;2023-04-20T12:15:26;100913.78;;;19.58;24.56
30897;BME280;64229;52.246;21.054;2023-04-20T12:17:53;100915.25;;;19.42;25.03
30897;BME280;64229;52.246;21.054;2023-04-20T12:20:18;100922.06;;;19.40;25.53
30897;BME280;64229;52.246;21.054;2023-04-20T12:22:44;100912.09;;;19.71;25.79
30897;BME280;64229;52.246;21.054;2023-04-20T12:25:09;100912.56;;;20.04;24.77
30897;BME280;64229;52.246;21.054;2023-04-20T12:27:35;100911.72;;;20.35;24.74
30897;BME280;64229;52.246;21.054;2023-04-20T12:30:01;100905.63;;;20.29;25.46
30897;BME280;64229;52.246;21.054;2023-04-20T12:32:26;100905.56;;;20.60;24.37
30897;BME280;64229;52.246;21.054;2023-04-20T12:34:51;100904.63;;;20.73;23.81
30897;BME280;64229;52.246;21.054;2023-04-20T12:37:17;100907.34;;;20.73;22.80
30897;BME280;64229;52.246;21.054;2023-04-20T12:39:42;100891.88;;;21.08;22.71
30897;BME280;64229;52.246;21.054;2023-04-20T12:42:07;100891.41;;;21.32;22.63
30897;BME280;64229;52.246;21.054;2023-04-20T12:44:33;100885.09;;;21.58;22.19
30897;BME280;64229;52.246;21.054;2023-04-20T12:46:58;100877.91;;;21.71;22.57
30897;BME280;64229;52.246;21.054;2023-04-20T12:49:24;100874.41;;;21.61;22.67